Time,TemperatureF,DewpointF,PressureIn,WindDirection,WindDirectionDegrees,WindSpeedMPH,WindSpeedGustMPH,Humidity,HourlyPrecipIn,Conditions,Clouds,dailyrainin,SoftwareType,DateUTC
2013-05-01 00:01:00,59.6,50.2,30.71,SSE,148,3.5,3.5,71,0.00,OVC,,0.00,WeatherDisplay:10.37,2013-05-01 04:01:00,
2013-05-01 00:06:00,59.6,50.2,30.71,SSE,156,3.5,3.5,71,0.00,OVC,,0.00,WeatherDisplay:10.37,2013-05-01 04:06:00,
2013-05-01 00:11:00,59.6,50.6,30.71,SE,132,2.3,2.3,72,0.00,OVC,,0.00,WeatherDisplay:10.37,2013-05-01 04:11:00,
2013-05-01 00:16:00,59.6,50.6,30.72,SE,143,3.5,3.5,72,0.00,OVC,,0.00,WeatherDisplay:10.37,2013-05-01 04:16:00,
2013-05-01 00:21:00,59.5,50.5,30.72,SSE,151,3.5,3.5,72,0.00,OVC,,0.00,WeatherDisplay:10.37,2013-05-01 04:21:00,
2013-05-01 00:26:00,59.6,50.2,30.72,SE,125,2.3,2.3,71,0.00,OVC,,0.00,WeatherDisplay:10.37,2013-05-01 04:26:00,
2013-05-01 00:31:00,59.6,50.2,30.72,SSE,164,3.5,3.5,71,0.00,OVC,,0.00,WeatherDisplay:10.37,2013-05-01 04:31:00,
2013-05-01 00:36:00,59.5,50.1,30.72,SSE,155,2.3,2.3,71,0.00,OVC,,0.00,WeatherDisplay:10.37,2013-05-01 04:36:00,
2013-05-01 00:41:00,59.5,50.5,30.72,SE,144,3.5,3.5,72,0.00,OVC,,0.00,WeatherDisplay:10.37,2013-05-01 04:41:00,
2013-05-01 00:46:00,59.5,50.5,30.72,SSE,153,3.5,3.5,72,0.00,OVC,,0.00,WeatherDisplay:10.37,2013-05-01 04:46:00,
2013-05-01 00:51:00,59.5,50.5,30.72,SE,134,2.3,2.3,72,0.00,OVC,,0.00,WeatherDisplay:10.37,2013-05-01 04:51:00,
2013-05-01 00:56:00,59.5,50.1,30.72,ESE,122,3.5,3.5,71,0.00,OVC,,0.00,WeatherDisplay:10.37,2013-05-01 04:56:00,
2013-05-01 01:01:00,59.5,50.5,30.72,SSE,168,3.5,3.5,72,0.00,OVC,,0.00,WeatherDisplay:10.37,2013-05-01 05:01:00,
2013-05-01 01:06:00,59.5,50.5,30.73,SE,144,3.5,3.5,72,0.00,OVC,,0.00,WeatherDisplay:10.37,2013-05-01 05:06:00,
2013-05-01 01:11:00,59.5,50.5,30.73,ESE,123,3.5,3.5,72,0.00,OVC,,0.00,WeatherDisplay:10.37,2013-05-01 05:11:00,
2013-05-01 01:16:00,59.5,50.5,30.73,SSE,151,3.5,3.5,72,0.00,OVC,,0.00,WeatherDisplay:10.37,2013-05-01 05:16:00,
2013-05-01 01:21:00,59.5,50.1,30.73,ESE,118,3.5,3.5,71,0.00,OVC,,0.00,WeatherDisplay:10.37,2013-05-01 05:21:00,
2013-05-01 01:26:00,59.4,50.4,30.73,SSE,155,2.3,2.3,72,0.00,OVC,,0.00,WeatherDisplay:10.37,2013-05-01 05:26:00,
2013-05-01 01:31:00,59.4,50.4,30.73,SE,146,3.5,3.5,72,0.00,OVC,,0.00,WeatherDisplay:10.37,2013-05-01 05:31:00,
2013-05-01 01:36:00,59.4,50.4,30.73,SSE,158,2.3,2.3,72,0.00,OVC,,0.00,WeatherDisplay:10.37,2013-05-01 05:36:00,
2013-05-01 01:41:00,59.2,50.2,30.74,SSE,161,1.2,1.2,72,0.00,OVC,,0.00,WeatherDisplay:10.37,2013-05-01 05:41:00,
2013-05-01 01:46:00,59.2,50.5,30.74,SSE,152,2.3,2.3,73,0.00,OVC,,0.00,WeatherDisplay:10.37,2013-05-01 05:46:00,
2013-05-01 01:51:00,59.1,50.1,30.74,SSE,160,3.5,3.5,72,0.00,OVC,,0.00,WeatherDisplay:10.37,2013-05-01 05:51:00,
2013-05-01 01:56:00,59.1,50.1,30.74,SSE,150,2.3,2.3,72,0.00,OVC,,0.00,WeatherDisplay:10.37,2013-05-01 05:56:00,
2013-05-01 02:01:00,59.1,50.5,30.74,SE,133,3.0,3.0,73,0.00,OVC,,0.00,WeatherDisplay:10.37,2013-05-01 06:01:00,
2013-05-01 02:06:00,59.0,50.4,30.74,SE,140,4.0,4.0,73,0.00,OVC,,0.00,WeatherDisplay:10.37,2013-05-01 06:06:00,
2013-05-01 02:11:00,59.0,50.4,30.74,South,174,2.3,2.3,73,0.00,OVC,,0.00,WeatherDisplay:10.37,2013-05-01 06:11:00,
2013-05-01 02:16:00,59.0,50.4,30.74,SSE,151,3.5,3.5,73,0.00,OVC,,0.00,WeatherDisplay:10.37,2013-05-01 06:16:00,
2013-05-01 02:21:00,58.9,50.3,30.74,SE,144,2.3,2.3,73,0.00,OVC,,0.00,WeatherDisplay:10.37,2013-05-01 06:21:00,
2013-05-01 02:26:00,58.8,50.2,30.74,SE,137,2.3,2.3,73,0.00,OVC,,0.00,WeatherDisplay:10.37,2013-05-01 06:26:00,
2013-05-01 02:32:00,58.7,50.4,30.73,SSE,149,3.5,3.5,74,0.00,OVC,,0.00,WeatherDisplay:10.37,2013-05-01 06:32:00,
2013-05-01 02:37:00,58.7,50.4,30.73,SSE,147,4.0,4.0,74,0.00,OVC,,0.00,WeatherDisplay:10.37,2013-05-01 06:37:00,
2013-05-01 02:42:00,58.7,50.1,30.74,SSE,163,2.3,2.3,73,0.00,OVC,,0.00,WeatherDisplay:10.37,2013-05-01 06:42:00,
2013-05-01 02:47:00,58.8,50.2,30.74,SE,145,3.5,3.5,73,0.00,OVC,,0.00,WeatherDisplay:10.37,2013-05-01 06:47:00,
2013-05-01 02:52:00,58.7,50.1,30.73,SE,139,2.3,2.3,73,0.00,OVC,,0.00,WeatherDisplay:10.37,2013-05-01 06:52:00,
2013-05-01 02:57:00,58.7,50.1,30.73,ESE,122,3.0,3.0,73,0.00,OVC,,0.00,WeatherDisplay:10.37,2013-05-01 06:57:00,
2013-05-01 03:02:00,58.7,50.4,30.74,SSE,153,3.5,3.5,74,0.00,OVC,,0.00,WeatherDisplay:10.37,2013-05-01 07:02:00,
2013-05-01 03:07:00,58.6,50.3,30.74,SSE,161,3.5,3.5,74,0.00,OVC,,0.00,WeatherDisplay:10.37,2013-05-01 07:07:00,
2013-05-01 03:12:00,58.6,50.3,30.74,SE,143,3.5,3.5,74,0.00,OVC,,0.00,WeatherDisplay:10.37,2013-05-01 07:12:00,
2013-05-01 03:17:00,58.5,50.2,30.74,SSE,149,2.0,2.0,74,0.00,OVC,,0.00,WeatherDisplay:10.37,2013-05-01 07:17:00,
2013-05-01 03:22:00,58.5,50.2,30.74,SE,145,2.3,2.3,74,0.00,OVC,,0.00,WeatherDisplay:10.37,2013-05-01 07:22:00,
2013-05-01 03:27:00,58.5,50.2,30.74,SSE,155,2.3,2.3,74,0.00,OVC,,0.00,WeatherDisplay:10.37,2013-05-01 07:27:00,
2013-05-01 03:32:00,58.4,50.1,30.74,SSE,147,3.5,3.5,74,0.00,OVC,,0.00,WeatherDisplay:10.37,2013-05-01 07:32:00,
2013-05-01 03:37:00,58.2,50.3,30.74,SSE,152,2.3,2.3,75,0.00,OVC,,0.00,WeatherDisplay:10.37,2013-05-01 07:37:00,
2013-05-01 03:42:00,58.1,50.2,30.74,SE,146,3.5,3.5,75,0.00,OVC,,0.00,WeatherDisplay:10.37,2013-05-01 07:42:00,
2013-05-01 03:47:00,57.9,50.0,30.74,SE,132,3.5,3.5,75,0.00,OVC,,0.00,WeatherDisplay:10.37,2013-05-01 07:47:00,
2013-05-01 03:52:00,57.7,50.2,30.74,SSE,148,2.3,2.3,76,0.00,OVC,,0.00,WeatherDisplay:10.37,2013-05-01 07:52:00,
2013-05-01 03:57:00,57.5,50.0,30.74,SE,131,3.5,3.5,76,0.00,OVC,,0.00,WeatherDisplay:10.37,2013-05-01 07:57:00,
2013-05-01 04:02:00,57.5,50.0,30.74,SE,141,3.5,3.5,76,0.00,BKN,,0.00,WeatherDisplay:10.37,2013-05-01 08:02:00,
2013-05-01 04:07:00,57.4,50.2,30.74,SSE,153,3.5,3.5,77,0.00,BKN,,0.00,WeatherDisplay:10.37,2013-05-01 08:07:00,
2013-05-01 04:12:00,57.4,50.2,30.74,SE,137,3.5,3.5,77,0.00,BKN,,0.00,WeatherDisplay:10.37,2013-05-01 08:12:00,
2013-05-01 04:17:00,57.2,50.1,30.74,SSE,147,4.6,4.6,77,0.00,BKN,,0.00,WeatherDisplay:10.37,2013-05-01 08:17:00,
2013-05-01 04:22:00,57.0,49.9,30.75,SE,129,3.5,3.5,77,0.00,BKN,,0.00,WeatherDisplay:10.37,2013-05-01 08:22:00,
2013-05-01 04:27:00,56.8,49.7,30.75,SE,131,3.5,3.5,77,0.00,BKN,,0.00,WeatherDisplay:10.37,2013-05-01 08:27:00,
2013-05-01 04:32:00,56.7,49.6,30.75,SSE,167,2.3,2.3,77,0.00,BKN,,0.00,WeatherDisplay:10.37,2013-05-01 08:32:00,
2013-05-01 04:37:00,56.5,49.4,30.75,SE,146,2.3,2.3,77,0.00,BKN,,0.00,WeatherDisplay:10.37,2013-05-01 08:37:00,
2013-05-01 04:42:00,56.4,49.6,30.75,SSE,149,1.2,1.2,78,0.00,BKN,,0.00,WeatherDisplay:10.37,2013-05-01 08:42:00,
2013-05-01 04:47:00,56.3,49.5,30.75,SE,137,1.0,0.0,78,0.00,BKN,,0.00,WeatherDisplay:10.37,2013-05-01 08:47:00,
2013-05-01 04:52:00,56.4,49.3,30.75,SSE,158,1.2,1.2,77,0.00,BKN,,0.00,WeatherDisplay:10.37,2013-05-01 08:52:00,
2013-05-01 04:57:00,56.4,49.3,30.75,SE,131,2.3,2.3,77,0.00,BKN,,0.00,WeatherDisplay:10.37,2013-05-01 08:57:00,
2013-05-01 05:02:00,56.4,49.3,30.76,SSE,152,1.2,1.2,77,0.00,BKN,,0.00,WeatherDisplay:10.37,2013-05-01 09:02:00,
2013-05-01 05:07:00,56.3,49.5,30.76,SSE,150,1.2,1.2,78,0.00,BKN,,0.00,WeatherDisplay:10.37,2013-05-01 09:07:00,
2013-05-01 05:12:00,56.1,49.3,30.76,SE,144,2.3,2.3,78,0.00,BKN,,0.00,WeatherDisplay:10.37,2013-05-01 09:12:00,
2013-05-01 05:17:00,56.0,48.9,30.76,SSE,147,1.2,1.2,77,0.00,BKN,,0.00,WeatherDisplay:10.37,2013-05-01 09:17:00,
2013-05-01 05:22:00,56.1,48.6,30.76,SSE,148,2.3,2.3,76,0.00,BKN,,0.00,WeatherDisplay:10.37,2013-05-01 09:22:00,
2013-05-01 05:27:00,56.3,48.8,30.76,SSE,159,1.2,1.2,76,0.00,BKN,,0.00,WeatherDisplay:10.37,2013-05-01 09:27:00,
2013-05-01 05:32:00,56.3,48.1,30.76,SSE,148,3.5,3.5,74,0.00,BKN,,0.00,WeatherDisplay:10.37,2013-05-01 09:32:00,
2013-05-01 05:37:00,56.5,47.9,30.77,SSE,163,3.5,3.5,73,0.00,BKN,,0.00,WeatherDisplay:10.37,2013-05-01 09:37:00,
2013-05-01 05:42:00,56.7,47.8,30.77,SE,129,3.5,3.5,72,0.00,BKN,,0.00,WeatherDisplay:10.37,2013-05-01 09:42:00,
2013-05-01 05:47:00,56.8,47.5,30.77,SSE,149,3.5,3.5,71,0.00,BKN,,0.00,WeatherDisplay:10.37,2013-05-01 09:47:00,
2013-05-01 05:52:00,56.8,47.5,30.78,SE,140,1.2,0.0,71,0.00,BKN,,0.00,WeatherDisplay:10.37,2013-05-01 09:52:00,
2013-05-01 05:57:00,56.8,47.1,30.78,SSE,163,3.0,3.0,70,0.00,BKN,,0.00,WeatherDisplay:10.37,2013-05-01 09:57:00,
2013-05-01 06:02:00,56.8,47.1,30.78,SSE,166,2.3,2.3,70,0.00,BKN,,0.00,WeatherDisplay:10.37,2013-05-01 10:02:00,
2013-05-01 06:07:00,56.8,46.7,30.78,SSE,160,2.3,2.3,69,0.00,BKN,,0.00,WeatherDisplay:10.37,2013-05-01 10:07:00,
2013-05-01 06:12:00,56.7,47.0,30.79,SE,145,1.2,1.2,70,0.00,BKN,,0.00,WeatherDisplay:10.37,2013-05-01 10:12:00,
2013-05-01 06:17:00,56.7,46.6,30.79,SSE,153,2.3,2.3,69,0.00,BKN,,0.00,WeatherDisplay:10.37,2013-05-01 10:17:00,
2013-05-01 06:22:00,56.7,46.6,30.79,SE,141,1.2,1.2,69,0.00,BKN,,0.00,WeatherDisplay:10.37,2013-05-01 10:22:00,
2013-05-01 06:27:00,56.7,47.0,30.80,SSE,160,3.5,3.5,70,0.00,BKN,,0.00,WeatherDisplay:10.37,2013-05-01 10:27:00,
2013-05-01 06:32:00,56.6,46.9,30.80,SE,144,1.2,1.2,70,0.00,BKN,,0.00,WeatherDisplay:10.37,2013-05-01 10:32:00,
2013-05-01 06:37:00,56.5,46.8,30.80,SSE,155,1.2,1.2,70,0.00,BKN,,0.00,WeatherDisplay:10.37,2013-05-01 10:37:00,
2013-05-01 06:42:00,56.4,46.7,30.80,SSE,154,1.2,1.2,70,0.00,BKN,,0.00,WeatherDisplay:10.37,2013-05-01 10:42:00,
2013-05-01 06:47:00,56.3,47.4,30.80,SE,143,1.2,1.2,72,0.00,BKN,,0.00,WeatherDisplay:10.37,2013-05-01 10:47:00,
2013-05-01 06:52:00,56.1,47.6,30.81,SE,143,2.3,2.3,73,0.00,BKN,,0.00,WeatherDisplay:10.37,2013-05-01 10:52:00,
2013-05-01 06:57:00,55.9,47.4,30.81,SSE,160,2.3,2.3,73,0.00,BKN,,0.00,WeatherDisplay:10.37,2013-05-01 10:57:00,
2013-05-01 07:02:00,55.8,47.3,30.81,SSE,153,3.0,3.0,73,0.00,OVC,,0.00,WeatherDisplay:10.37,2013-05-01 11:02:00,
2013-05-01 07:07:00,55.6,47.1,30.82,SSE,148,2.3,2.3,73,0.00,OVC,,0.00,WeatherDisplay:10.37,2013-05-01 11:07:00,
2013-05-01 07:12:00,55.6,47.1,30.82,SSE,162,3.5,3.5,73,0.00,OVC,,0.00,WeatherDisplay:10.37,2013-05-01 11:12:00,
2013-05-01 07:17:00,55.6,46.7,30.82,SE,144,1.2,1.2,72,0.00,OVC,,0.00,WeatherDisplay:10.37,2013-05-01 11:17:00,
2013-05-01 07:22:00,55.6,46.7,30.82,SE,140,1.2,1.2,72,0.00,OVC,,0.00,WeatherDisplay:10.37,2013-05-01 11:22:00,
2013-05-01 07:27:00,55.7,46.8,30.82,SSE,155,2.3,2.3,72,0.00,OVC,,0.00,WeatherDisplay:10.37,2013-05-01 11:27:00,
2013-05-01 07:32:00,55.7,46.8,30.82,SSE,149,3.5,3.5,72,0.00,OVC,,0.00,WeatherDisplay:10.37,2013-05-01 11:32:00,
2013-05-01 07:37:00,55.7,46.8,30.82,SSE,154,2.3,2.3,72,0.00,OVC,,0.00,WeatherDisplay:10.37,2013-05-01 11:37:00,
2013-05-01 07:42:00,55.8,46.5,30.83,SSE,150,3.5,3.5,71,0.00,OVC,,0.00,WeatherDisplay:10.37,2013-05-01 11:42:00,
2013-05-01 07:47:00,55.9,46.3,30.83,SE,127,3.5,3.5,70,0.00,OVC,,0.00,WeatherDisplay:10.37,2013-05-01 11:47:00,
2013-05-01 07:52:00,56.0,46.4,30.83,SE,139,3.5,3.5,70,0.00,OVC,,0.00,WeatherDisplay:10.37,2013-05-01 11:52:00,
2013-05-01 07:57:00,56.1,46.8,30.83,SE,133,2.3,2.3,71,0.00,OVC,,0.00,WeatherDisplay:10.37,2013-05-01 11:57:00,
2013-05-01 08:02:00,56.3,46.6,30.83,SSE,149,1.2,1.2,70,0.00,BKN,,0.00,WeatherDisplay:10.37,2013-05-01 12:02:00,
2013-05-01 08:07:00,56.6,46.9,30.83,SSE,151,2.3,2.3,70,0.00,BKN,,0.00,WeatherDisplay:10.37,2013-05-01 12:07:00,
2013-05-01 08:12:00,56.8,46.7,30.83,SE,137,2.3,2.3,69,0.00,BKN,,0.00,WeatherDisplay:10.37,2013-05-01 12:12:00,
2013-05-01 08:17:00,57.1,46.6,30.83,SSE,156,3.5,3.5,68,0.00,BKN,,0.00,WeatherDisplay:10.37,2013-05-01 12:17:00,
2013-05-01 08:22:00,57.3,46.4,30.83,SE,144,3.5,3.5,67,0.00,BKN,,0.00,WeatherDisplay:10.37,2013-05-01 12:22:00,
2013-05-01 08:27:00,57.5,47.0,30.83,SSE,155,2.0,2.0,68,0.00,BKN,,0.00,WeatherDisplay:10.37,2013-05-01 12:27:00,
2013-05-01 08:32:00,57.7,46.0,30.83,SSE,153,3.5,3.5,65,0.00,BKN,,0.00,WeatherDisplay:10.37,2013-05-01 12:32:00,
2013-05-01 08:37:00,58.1,46.0,30.84,SSE,150,3.5,3.5,64,0.00,BKN,,0.00,WeatherDisplay:10.37,2013-05-01 12:37:00,
2013-05-01 08:42:00,58.5,46.8,30.84,South,170,2.3,2.3,65,0.00,BKN,,0.00,WeatherDisplay:10.37,2013-05-01 12:42:00,
2013-05-01 08:47:00,58.7,46.5,30.84,SSE,157,3.0,3.0,64,0.00,BKN,,0.00,WeatherDisplay:10.37,2013-05-01 12:47:00,
2013-05-01 08:52:00,58.8,46.6,30.84,SSE,155,2.3,2.3,64,0.00,BKN,,0.00,WeatherDisplay:10.37,2013-05-01 12:52:00,
2013-05-01 08:57:00,58.7,46.5,30.83,SSE,159,3.5,3.5,64,0.00,BKN,,0.00,WeatherDisplay:10.37,2013-05-01 12:57:00,
2013-05-01 09:02:00,58.8,47.1,30.83,SE,131,3.5,3.5,65,0.00,BKN,,0.00,WeatherDisplay:10.37,2013-05-01 13:02:00,
2013-05-01 09:07:00,58.9,47.2,30.82,South,173,5.8,5.8,65,0.00,BKN,,0.00,WeatherDisplay:10.37,2013-05-01 13:07:00,
2013-05-01 09:12:00,59.1,46.5,30.82,SSE,163,5.8,5.8,63,0.00,BKN,,0.00,WeatherDisplay:10.37,2013-05-01 13:12:00,
2013-05-01 09:17:00,59.4,45.9,30.82,SSW,198,5.8,5.8,61,0.00,BKN,,0.00,WeatherDisplay:10.37,2013-05-01 13:17:00,
2013-05-01 09:22:00,59.7,45.8,30.82,SSE,163,5.8,5.8,60,0.00,BKN,,0.00,WeatherDisplay:10.37,2013-05-01 13:22:00,
2013-05-01 09:27:00,59.9,46.8,30.82,South,189,3.5,3.5,62,0.00,BKN,,0.00,WeatherDisplay:10.37,2013-05-01 13:27:00,
2013-05-01 09:32:00,60.1,46.6,30.82,South,178,4.6,4.6,61,0.00,BKN,,0.00,WeatherDisplay:10.37,2013-05-01 13:32:00,
2013-05-01 09:37:00,60.3,46.4,30.83,ESE,122,5.0,5.0,60,0.00,BKN,,0.00,WeatherDisplay:10.37,2013-05-01 13:37:00,
2013-05-01 09:42:00,60.3,45.9,30.83,SSE,158,5.8,5.8,59,0.00,BKN,,0.00,WeatherDisplay:10.37,2013-05-01 13:42:00,
2013-05-01 09:47:00,60.4,45.5,30.83,SE,135,4.6,4.6,58,0.00,BKN,,0.00,WeatherDisplay:10.37,2013-05-01 13:47:00,
2013-05-01 09:52:00,60.7,46.7,30.83,South,182,3.5,3.5,60,0.00,BKN,,0.00,WeatherDisplay:10.37,2013-05-01 13:52:00,
2013-05-01 09:57:00,60.9,45.1,30.82,SSE,163,6.9,6.9,56,0.00,BKN,,0.00,WeatherDisplay:10.37,2013-05-01 13:57:00,
2013-05-01 10:02:00,61.2,45.4,30.83,SE,142,6.0,6.0,56,0.00,BKN,,0.00,WeatherDisplay:10.37,2013-05-01 14:02:00,
2013-05-01 10:07:00,61.3,45.0,30.83,SSE,158,4.6,4.6,55,0.00,BKN,,0.00,WeatherDisplay:10.37,2013-05-01 14:07:00,
2013-05-01 10:12:00,61.5,45.2,30.83,SSE,155,4.6,4.6,55,0.00,BKN,,0.00,WeatherDisplay:10.37,2013-05-01 14:12:00,
2013-05-01 10:17:00,61.8,45.0,30.83,SSE,163,6.9,6.9,54,0.00,BKN,,0.00,WeatherDisplay:10.37,2013-05-01 14:17:00,
2013-05-01 10:22:00,62.2,44.3,30.83,SE,125,6.9,6.9,52,0.00,BKN,,0.00,WeatherDisplay:10.37,2013-05-01 14:22:00,
2013-05-01 10:27:00,62.6,44.2,30.83,SSE,160,3.5,3.5,51,0.00,BKN,,0.00,WeatherDisplay:10.37,2013-05-01 14:27:00,
2013-05-01 10:32:00,63.4,46.0,30.83,SSE,156,8.1,8.1,53,0.00,BKN,,0.00,WeatherDisplay:10.37,2013-05-01 14:32:00,
2013-05-01 10:37:00,64.6,46.1,30.83,South,180,5.8,5.8,51,0.00,BKN,,0.00,WeatherDisplay:10.37,2013-05-01 14:37:00,
2013-05-01 10:42:00,65.6,46.5,30.83,SSE,160,4.0,4.0,50,0.00,BKN,,0.00,WeatherDisplay:10.37,2013-05-01 14:42:00,
2013-05-01 10:47:00,66.2,44.8,30.83,SSE,160,6.9,6.9,46,0.00,BKN,,0.00,WeatherDisplay:10.37,2013-05-01 14:47:00,
2013-05-01 10:52:00,66.7,44.1,30.82,SW,219,8.1,8.1,44,0.00,BKN,,0.00,WeatherDisplay:10.37,2013-05-01 14:52:00,
2013-05-01 10:57:00,67.4,42.9,30.83,ESE,122,11.5,11.5,41,0.00,BKN,,0.00,WeatherDisplay:10.37,2013-05-01 14:57:00,
2013-05-01 11:02:00,67.7,42.5,30.83,SSE,152,10.0,10.0,40,0.00,SCT,,0.00,WeatherDisplay:10.37,2013-05-01 15:02:00,
2013-05-01 11:07:00,67.9,40.7,30.82,SE,135,11.5,11.5,37,0.00,SCT,,0.00,WeatherDisplay:10.37,2013-05-01 15:07:00,
2013-05-01 11:12:00,68.3,41.7,30.83,WSW,251,12.0,12.0,38,0.00,SCT,,0.00,WeatherDisplay:10.37,2013-05-01 15:12:00,
2013-05-01 11:17:00,68.8,40.7,30.83,SSE,155,11.5,11.5,36,0.00,SCT,,0.00,WeatherDisplay:10.37,2013-05-01 15:17:00,
2013-05-01 11:22:00,69.4,41.3,30.83,SW,224,11.0,11.0,36,0.00,SCT,,0.00,WeatherDisplay:10.37,2013-05-01 15:22:00,
2013-05-01 11:27:00,69.9,37.9,30.82,SW,216,11.0,11.0,31,0.00,SCT,,0.00,WeatherDisplay:10.37,2013-05-01 15:27:00,
2013-05-01 11:32:00,70.3,40.6,30.82,South,170,10.4,10.4,34,0.00,SCT,,0.00,WeatherDisplay:10.37,2013-05-01 15:32:00,
2013-05-01 11:37:00,70.1,38.0,30.82,South,189,15.0,15.0,31,0.00,SCT,,0.00,WeatherDisplay:10.37,2013-05-01 15:37:00,
2013-05-01 11:42:00,69.9,39.5,30.82,SE,142,4.6,4.6,33,0.00,SCT,,0.00,WeatherDisplay:10.37,2013-05-01 15:42:00,
2013-05-01 11:47:00,70.0,38.8,30.82,SSE,151,11.5,11.5,32,0.00,SCT,,0.00,WeatherDisplay:10.37,2013-05-01 15:47:00,
2013-05-01 11:52:00,70.0,38.0,30.82,SSE,154,10.4,10.4,31,0.00,SCT,,0.00,WeatherDisplay:10.37,2013-05-01 15:52:00,
2013-05-01 11:57:00,70.2,36.4,30.82,South,184,10.4,10.4,29,0.00,SCT,,0.00,WeatherDisplay:10.37,2013-05-01 15:57:00,
2013-05-01 12:02:00,70.2,37.3,30.82,ESE,120,8.1,8.1,30,0.00,SCT,,0.00,WeatherDisplay:10.37,2013-05-01 16:02:00,
2013-05-01 12:07:00,70.6,38.5,30.82,SSE,162,8.0,8.0,31,0.00,SCT,,0.00,WeatherDisplay:10.37,2013-05-01 16:07:00,
2013-05-01 12:12:00,70.8,36.1,30.81,SSE,155,16.1,16.1,28,0.00,SCT,,0.00,WeatherDisplay:10.37,2013-05-01 16:12:00,
2013-05-01 12:17:00,70.8,38.7,30.81,SSE,148,9.2,9.2,31,0.00,SCT,,0.00,WeatherDisplay:10.37,2013-05-01 16:17:00,
2013-05-01 12:22:00,70.7,38.6,30.81,SSW,193,8.1,8.1,31,0.00,SCT,,0.00,WeatherDisplay:10.37,2013-05-01 16:22:00,
2013-05-01 12:27:00,71.0,36.2,30.81,SW,230,10.0,10.0,28,0.00,SCT,,0.00,WeatherDisplay:10.37,2013-05-01 16:27:00,
2013-05-01 12:32:00,71.3,39.9,30.81,South,174,6.9,6.9,32,0.00,SCT,,0.00,WeatherDisplay:10.37,2013-05-01 16:32:00,
2013-05-01 12:37:00,71.8,38.7,30.81,South,190,7.0,7.0,30,0.00,SCT,,0.00,WeatherDisplay:10.37,2013-05-01 16:37:00,
2013-05-01 12:42:00,72.1,36.3,30.81,SSE,160,9.2,9.2,27,0.00,SCT,,0.00,WeatherDisplay:10.37,2013-05-01 16:42:00,
2013-05-01 12:47:00,71.7,35.9,30.81,South,174,11.5,11.5,27,0.00,SCT,,0.00,WeatherDisplay:10.37,2013-05-01 16:47:00,
2013-05-01 12:52:00,71.8,36.0,30.81,South,173,11.5,11.5,27,0.00,SCT,,0.00,WeatherDisplay:10.37,2013-05-01 16:52:00,
2013-05-01 12:57:00,72.2,38.2,30.81,SSE,166,8.1,8.1,29,0.00,SCT,,0.00,WeatherDisplay:10.37,2013-05-01 16:57:00,
2013-05-01 13:02:00,72.2,36.3,30.81,SSE,156,6.9,6.9,27,0.00,SCT,,0.00,WeatherDisplay:10.37,2013-05-01 17:02:00,
2013-05-01 13:07:00,72.9,40.5,30.80,SW,223,4.6,4.6,31,0.00,SCT,,0.00,WeatherDisplay:10.37,2013-05-01 17:07:00,
2013-05-01 13:12:00,73.1,37.1,30.80,SE,127,6.9,6.9,27,0.00,SCT,,0.00,WeatherDisplay:10.37,2013-05-01 17:12:00,
2013-05-01 13:17:00,73.3,36.3,30.80,WSW,253,9.2,9.2,26,0.00,SCT,,0.00,WeatherDisplay:10.37,2013-05-01 17:17:00,
2013-05-01 13:22:00,73.5,38.4,30.80,South,179,9.0,9.0,28,0.00,SCT,,0.00,WeatherDisplay:10.37,2013-05-01 17:22:00,
2013-05-01 13:27:00,73.3,38.2,30.80,South,182,6.0,6.0,28,0.00,SCT,,0.00,WeatherDisplay:10.37,2013-05-01 17:27:00,
2013-05-01 13:32:00,73.3,37.3,30.80,ESE,107,9.2,9.2,27,0.00,SCT,,0.00,WeatherDisplay:10.37,2013-05-01 17:32:00,
2013-05-01 13:37:00,73.3,32.1,30.80,SE,137,9.2,9.2,22,0.00,SCT,,0.00,WeatherDisplay:10.37,2013-05-01 17:37:00,
2013-05-01 13:42:00,73.5,29.9,30.80,South,170,10.4,10.4,20,0.00,SCT,,0.00,WeatherDisplay:10.37,2013-05-01 17:42:00,
2013-05-01 13:48:00,73.8,33.7,30.79,SE,146,10.4,10.4,23,0.00,SCT,,0.00,WeatherDisplay:10.37,2013-05-01 17:48:00,
2013-05-01 13:53:00,73.7,34.6,30.79,SE,132,6.9,6.9,24,0.00,SCT,,0.00,WeatherDisplay:10.37,2013-05-01 17:53:00,
2013-05-01 13:58:00,74.0,31.6,30.79,SE,140,8.1,8.1,21,0.00,SCT,,0.00,WeatherDisplay:10.37,2013-05-01 17:58:00,
2013-05-01 14:03:00,73.9,31.5,30.79,SE,137,9.2,9.2,21,0.00,SCT,,0.00,WeatherDisplay:10.37,2013-05-01 18:03:00,
2013-05-01 14:08:00,74.0,36.9,30.79,SE,145,10.4,10.4,26,0.00,SCT,,0.00,WeatherDisplay:10.37,2013-05-01 18:08:00,
2013-05-01 14:13:00,74.0,34.9,30.79,South,172,10.4,10.4,24,0.00,SCT,,0.00,WeatherDisplay:10.37,2013-05-01 18:13:00,
2013-05-01 14:18:00,74.5,36.4,30.79,SSE,165,5.8,5.8,25,0.00,SCT,,0.00,WeatherDisplay:10.37,2013-05-01 18:18:00,
2013-05-01 14:23:00,75.3,33.8,30.79,SE,139,11.5,11.5,22,0.00,SCT,,0.00,WeatherDisplay:10.37,2013-05-01 18:23:00,
2013-05-01 14:28:00,75.4,36.1,30.79,South,189,5.8,5.8,24,0.00,SCT,,0.00,WeatherDisplay:10.37,2013-05-01 18:28:00,
2013-05-01 14:33:00,75.0,34.7,30.79,South,172,10.4,10.4,23,0.00,SCT,,0.00,WeatherDisplay:10.37,2013-05-01 18:33:00,
2013-05-01 14:38:00,75.5,31.6,30.79,SW,225,9.2,9.2,20,0.00,SCT,,0.00,WeatherDisplay:10.37,2013-05-01 18:38:00,
2013-05-01 14:43:00,76.0,35.5,30.79,South,175,9.2,9.2,23,0.00,SCT,,0.00,WeatherDisplay:10.37,2013-05-01 18:43:00,
2013-05-01 14:48:00,76.1,39.7,30.79,SSE,157,8.1,8.1,27,0.00,SCT,,0.00,WeatherDisplay:10.37,2013-05-01 18:48:00,
2013-05-01 14:53:00,75.9,36.5,30.79,SE,144,6.9,6.9,24,0.00,SCT,,0.00,WeatherDisplay:10.37,2013-05-01 18:53:00,
2013-05-01 14:58:00,75.1,35.8,30.78,SE,143,6.9,6.9,24,0.00,SCT,,0.00,WeatherDisplay:10.37,2013-05-01 18:58:00,
2013-05-01 15:03:00,75.0,35.7,30.79,SSW,204,8.1,8.1,24,0.00,SCT,,0.00,WeatherDisplay:10.37,2013-05-01 19:03:00,
2013-05-01 15:08:00,74.9,34.6,30.78,South,173,8.1,8.1,23,0.00,SCT,,0.00,WeatherDisplay:10.37,2013-05-01 19:08:00,
2013-05-01 15:13:00,75.1,33.6,30.78,South,191,9.2,9.2,22,0.00,SCT,,0.00,WeatherDisplay:10.37,2013-05-01 19:13:00,
2013-05-01 15:18:00,75.1,34.8,30.78,SSE,157,6.9,6.9,23,0.00,SCT,,0.00,WeatherDisplay:10.37,2013-05-01 19:18:00,
2013-05-01 15:23:00,75.0,36.8,30.78,SE,144,9.2,9.2,25,0.00,SCT,,0.00,WeatherDisplay:10.37,2013-05-01 19:23:00,
2013-05-01 15:28:00,75.0,34.7,30.78,SSE,158,5.8,5.8,23,0.00,SCT,,0.00,WeatherDisplay:10.37,2013-05-01 19:28:00,
2013-05-01 15:33:00,75.3,34.9,30.78,SE,141,5.8,5.8,23,0.00,SCT,,0.00,WeatherDisplay:10.37,2013-05-01 19:33:00,
2013-05-01 15:38:00,75.5,35.1,30.78,SE,125,4.6,4.6,23,0.00,SCT,,0.00,WeatherDisplay:10.37,2013-05-01 19:38:00,
2013-05-01 15:43:00,75.3,36.0,30.78,WSW,250,6.9,6.9,24,0.00,SCT,,0.00,WeatherDisplay:10.37,2013-05-01 19:43:00,
2013-05-01 15:48:00,75.3,34.9,30.78,ESE,120,6.9,6.9,23,0.00,SCT,,0.00,WeatherDisplay:10.37,2013-05-01 19:48:00,
2013-05-01 15:53:00,75.3,36.0,30.78,SE,132,6.0,6.0,24,0.00,SCT,,0.00,WeatherDisplay:10.37,2013-05-01 19:53:00,
2013-05-01 15:58:00,75.4,35.0,30.78,ESE,103,9.2,9.2,23,0.00,SCT,,0.00,WeatherDisplay:10.37,2013-05-01 19:58:00,
2013-05-01 16:03:00,75.2,34.8,30.78,SE,137,8.0,8.0,23,0.00,FEW,,0.00,WeatherDisplay:10.37,2013-05-01 20:03:00,
2013-05-01 16:08:00,75.6,37.3,30.78,SE,141,6.0,6.0,25,0.00,FEW,,0.00,WeatherDisplay:10.37,2013-05-01 20:08:00,
2013-05-01 16:13:00,75.8,35.3,30.78,SSE,157,6.9,6.9,23,0.00,FEW,,0.00,WeatherDisplay:10.37,2013-05-01 20:13:00,
2013-05-01 16:18:00,75.6,35.2,30.78,SE,132,10.0,10.0,23,0.00,FEW,,0.00,WeatherDisplay:10.37,2013-05-01 20:18:00,
2013-05-01 16:23:00,75.3,34.9,30.78,SE,135,9.2,9.2,23,0.00,FEW,,0.00,WeatherDisplay:10.37,2013-05-01 20:23:00,
2013-05-01 16:28:00,75.2,33.7,30.78,NE,54,8.1,8.1,22,0.00,FEW,,0.00,WeatherDisplay:10.37,2013-05-01 20:28:00,
2013-05-01 16:33:00,75.3,34.9,30.78,South,173,6.9,6.9,23,0.00,FEW,,0.00,WeatherDisplay:10.37,2013-05-01 20:33:00,
2013-05-01 16:38:00,75.5,36.2,30.78,SSE,151,10.4,10.4,24,0.00,FEW,,0.00,WeatherDisplay:10.37,2013-05-01 20:38:00,
2013-05-01 16:43:00,75.6,37.3,30.78,South,185,9.2,9.2,25,0.00,FEW,,0.00,WeatherDisplay:10.37,2013-05-01 20:43:00,
2013-05-01 16:48:00,75.8,35.3,30.78,SSE,160,5.8,5.8,23,0.00,FEW,,0.00,WeatherDisplay:10.37,2013-05-01 20:48:00,
2013-05-01 16:53:00,75.7,34.1,30.77,SE,138,4.6,4.6,22,0.00,FEW,,0.00,WeatherDisplay:10.37,2013-05-01 20:53:00,
2013-05-01 16:58:00,75.7,35.3,30.77,SE,132,8.1,8.1,23,0.00,FEW,,0.00,WeatherDisplay:10.37,2013-05-01 20:58:00,
2013-05-01 17:03:00,75.6,34.1,30.77,SE,146,9.0,9.0,22,0.00,FEW,,0.00,WeatherDisplay:10.37,2013-05-01 21:03:00,
2013-05-01 17:08:00,75.8,35.3,30.77,SE,143,3.5,3.5,23,0.00,FEW,,0.00,WeatherDisplay:10.37,2013-05-01 21:08:00,
2013-05-01 17:13:00,75.9,33.1,30.77,SE,139,8.1,8.1,21,0.00,FEW,,0.00,WeatherDisplay:10.37,2013-05-01 21:13:00,
2013-05-01 17:18:00,75.7,31.8,30.77,SE,137,9.2,9.2,20,0.00,FEW,,0.00,WeatherDisplay:10.37,2013-05-01 21:18:00,
2013-05-01 17:23:00,75.5,31.6,30.77,SE,132,9.2,9.2,20,0.00,FEW,,0.00,WeatherDisplay:10.37,2013-05-01 21:23:00,
2013-05-01 17:28:00,75.6,35.2,30.77,SE,133,10.4,10.4,23,0.00,FEW,,0.00,WeatherDisplay:10.37,2013-05-01 21:28:00,
2013-05-01 17:33:00,75.6,36.2,30.77,East,95,7.0,7.0,24,0.00,FEW,,0.00,WeatherDisplay:10.37,2013-05-01 21:33:00,
2013-05-01 17:38:00,75.6,32.9,30.77,SE,142,6.9,6.9,21,0.00,FEW,,0.00,WeatherDisplay:10.37,2013-05-01 21:38:00,
2013-05-01 17:43:00,75.7,35.3,30.77,South,186,7.0,7.0,23,0.00,FEW,,0.00,WeatherDisplay:10.37,2013-05-01 21:43:00,
2013-05-01 17:48:00,75.8,35.3,30.77,SSE,159,5.8,5.8,23,0.00,FEW,,0.00,WeatherDisplay:10.37,2013-05-01 21:48:00,
2013-05-01 17:53:00,75.8,35.3,30.77,SSE,158,6.0,6.0,23,0.00,FEW,,0.00,WeatherDisplay:10.37,2013-05-01 21:53:00,
2013-05-01 17:58:00,75.5,34.0,30.77,SSE,160,4.0,4.0,22,0.00,FEW,,0.00,WeatherDisplay:10.37,2013-05-01 21:58:00,
2013-05-01 18:03:00,75.5,34.0,30.78,SE,139,3.5,3.5,22,0.00,CLR,,0.00,WeatherDisplay:10.37,2013-05-01 22:03:00,
2013-05-01 18:08:00,75.5,32.8,30.78,SSE,159,5.8,5.8,21,0.00,CLR,,0.00,WeatherDisplay:10.37,2013-05-01 22:08:00,
2013-05-01 18:13:00,75.6,32.9,30.78,SE,146,5.8,5.8,21,0.00,CLR,,0.00,WeatherDisplay:10.37,2013-05-01 22:13:00,
2013-05-01 18:18:00,75.4,32.7,30.78,SE,137,4.6,4.6,21,0.00,CLR,,0.00,WeatherDisplay:10.37,2013-05-01 22:18:00,
2013-05-01 18:23:00,75.3,33.8,30.78,South,170,5.0,5.0,22,0.00,CLR,,0.00,WeatherDisplay:10.37,2013-05-01 22:23:00,
2013-05-01 18:28:00,75.2,34.8,30.78,SSE,163,3.5,3.5,23,0.00,CLR,,0.00,WeatherDisplay:10.37,2013-05-01 22:28:00,
2013-05-01 18:33:00,75.2,33.7,30.78,East,83,7.0,7.0,22,0.00,CLR,,0.00,WeatherDisplay:10.37,2013-05-01 22:33:00,
2013-05-01 18:38:00,75.2,32.6,30.78,SSW,193,4.6,4.6,21,0.00,CLR,,0.00,WeatherDisplay:10.37,2013-05-01 22:38:00,
2013-05-01 18:43:00,75.2,34.8,30.78,SE,139,3.5,3.5,23,0.00,CLR,,0.00,WeatherDisplay:10.37,2013-05-01 22:43:00,
2013-05-01 18:48:00,75.0,32.4,30.78,SSE,147,9.2,9.2,21,0.00,CLR,,0.00,WeatherDisplay:10.37,2013-05-01 22:48:00,
2013-05-01 18:53:00,74.8,33.4,30.78,SE,139,3.5,3.5,22,0.00,CLR,,0.00,WeatherDisplay:10.37,2013-05-01 22:53:00,
2013-05-01 18:58:00,74.6,34.3,30.78,SSE,155,4.6,4.6,23,0.00,CLR,,0.00,WeatherDisplay:10.37,2013-05-01 22:58:00,
2013-05-01 19:03:00,74.4,34.2,30.78,SSE,159,2.3,2.3,23,0.00,CLR,,0.00,WeatherDisplay:10.37,2013-05-01 23:03:00,
2013-05-01 19:08:00,74.2,32.9,30.78,South,175,4.0,4.0,22,0.00,CLR,,0.00,WeatherDisplay:10.37,2013-05-01 23:08:00,
2013-05-01 19:13:00,74.0,32.7,30.78,ESE,105,4.6,4.6,22,0.00,CLR,,0.00,WeatherDisplay:10.37,2013-05-01 23:13:00,
2013-05-01 19:18:00,73.7,32.5,30.78,SSE,165,4.6,4.6,22,0.00,CLR,,0.00,WeatherDisplay:10.37,2013-05-01 23:18:00,
2013-05-01 19:23:00,73.5,33.4,30.78,SE,143,4.6,4.6,23,0.00,CLR,,0.00,WeatherDisplay:10.37,2013-05-01 23:23:00,
2013-05-01 19:28:00,73.2,34.2,30.78,SSE,150,4.6,4.6,24,0.00,CLR,,0.00,WeatherDisplay:10.37,2013-05-01 23:28:00,
2013-05-01 19:33:00,72.9,32.9,30.78,SE,139,2.3,2.3,23,0.00,CLR,,0.00,WeatherDisplay:10.37,2013-05-01 23:33:00,
2013-05-01 19:38:00,72.4,34.6,30.78,SE,144,2.3,2.3,25,0.00,CLR,,0.00,WeatherDisplay:10.37,2013-05-01 23:38:00,
2013-05-01 19:43:00,72.0,33.2,30.78,SE,140,3.5,3.5,24,0.00,CLR,,0.00,WeatherDisplay:10.37,2013-05-01 23:43:00,
2013-05-01 19:48:00,71.5,33.8,30.78,SSE,151,2.0,2.0,25,0.00,CLR,,0.00,WeatherDisplay:10.37,2013-05-01 23:48:00,
2013-05-01 19:53:00,70.9,33.3,30.78,SE,137,2.0,2.0,25,0.00,CLR,,0.00,WeatherDisplay:10.37,2013-05-01 23:53:00,
2013-05-01 19:58:00,70.5,33.0,30.79,SSE,149,2.3,2.3,25,0.00,CLR,,0.00,WeatherDisplay:10.37,2013-05-01 23:58:00,
2013-05-01 20:03:00,70.1,32.6,30.79,ESE,116,2.0,2.0,25,0.00,FEW,,0.00,WeatherDisplay:10.37,2013-05-02 00:03:00,
2013-05-01 20:08:00,69.8,33.3,30.79,SE,139,1.2,1.2,26,0.00,FEW,,0.00,WeatherDisplay:10.37,2013-05-02 00:08:00,
2013-05-01 20:13:00,69.2,33.8,30.79,SE,139,1.2,1.2,27,0.00,FEW,,0.00,WeatherDisplay:10.37,2013-05-02 00:13:00,
2013-05-01 20:19:00,68.6,33.3,30.79,SE,139,0.0,0.0,27,0.00,FEW,,0.00,WeatherDisplay:10.37,2013-05-02 00:19:00,
2013-05-01 20:24:00,68.2,32.0,30.80,SE,139,1.0,0.0,26,0.00,FEW,,0.00,WeatherDisplay:10.37,2013-05-02 00:24:00,
2013-05-01 20:29:00,67.9,32.7,30.80,SE,139,1.2,0.0,27,0.00,FEW,,0.00,WeatherDisplay:10.37,2013-05-02 00:29:00,
2013-05-01 20:34:00,67.5,32.3,30.80,SE,139,1.2,0.0,27,0.00,FEW,,0.00,WeatherDisplay:10.37,2013-05-02 00:34:00,
2013-05-01 20:39:00,67.1,32.9,30.80,SE,139,0.0,0.0,28,0.00,FEW,,0.00,WeatherDisplay:10.37,2013-05-02 00:39:00,
2013-05-01 20:44:00,66.7,32.5,30.80,SE,139,0.0,0.0,28,0.00,FEW,,0.00,WeatherDisplay:10.37,2013-05-02 00:44:00,
2013-05-01 20:49:00,66.3,32.2,30.80,SE,139,1.2,0.0,28,0.00,FEW,,0.00,WeatherDisplay:10.37,2013-05-02 00:49:00,
2013-05-01 20:54:00,65.8,34.3,30.81,SE,139,0.0,0.0,31,0.00,FEW,,0.00,WeatherDisplay:10.37,2013-05-02 00:54:00,
2013-05-01 20:59:00,65.1,32.9,30.81,SE,139,1.2,0.0,30,0.00,FEW,,0.00,WeatherDisplay:10.37,2013-05-02 00:59:00,
2013-05-01 21:04:00,64.9,32.7,30.81,SE,139,0.0,0.0,30,0.00,FEW,,0.00,WeatherDisplay:10.37,2013-05-02 01:04:00,
2013-05-01 21:09:00,64.6,33.3,30.81,SE,142,1.2,0.0,31,0.00,FEW,,0.00,WeatherDisplay:10.37,2013-05-02 01:09:00,
2013-05-01 21:14:00,65.0,33.6,30.81,SE,145,2.3,0.0,31,0.00,FEW,,0.00,WeatherDisplay:10.37,2013-05-02 01:14:00,
2013-05-01 21:19:00,64.8,33.4,30.81,SE,145,0.0,0.0,31,0.00,FEW,,0.00,WeatherDisplay:10.37,2013-05-02 01:19:00,
2013-05-01 21:24:00,64.3,33.8,30.81,SE,144,1.2,0.0,32,0.00,FEW,,0.00,WeatherDisplay:10.37,2013-05-02 01:24:00,
2013-05-01 21:29:00,63.7,34.8,30.81,SE,145,0.0,0.0,34,0.00,FEW,,0.00,WeatherDisplay:10.37,2013-05-02 01:29:00,
2013-05-01 21:34:00,63.3,33.7,30.81,SE,145,0.0,0.0,33,0.00,FEW,,0.00,WeatherDisplay:10.37,2013-05-02 01:34:00,
2013-05-01 21:39:00,63.4,34.5,30.81,SE,144,0.0,0.0,34,0.00,FEW,,0.00,WeatherDisplay:10.37,2013-05-02 01:39:00,
2013-05-01 21:44:00,62.7,36.7,30.81,SE,144,0.0,0.0,38,0.00,FEW,,0.00,WeatherDisplay:10.37,2013-05-02 01:44:00,
2013-05-01 21:49:00,61.8,36.6,30.82,SE,145,0.0,0.0,39,0.00,FEW,,0.00,WeatherDisplay:10.37,2013-05-02 01:49:00,
2013-05-01 21:54:00,61.9,36.0,30.82,SE,144,1.2,1.2,38,0.00,FEW,,0.00,WeatherDisplay:10.37,2013-05-02 01:54:00,
2013-05-01 21:59:00,62.3,35.7,30.82,ESE,118,2.3,2.3,37,0.00,FEW,,0.00,WeatherDisplay:10.37,2013-05-02 01:59:00,
2013-05-01 22:04:00,62.7,36.0,30.82,ESE,118,2.3,2.3,37,0.00,BKN,,0.00,WeatherDisplay:10.37,2013-05-02 02:04:00,
2013-05-01 22:09:00,62.7,36.0,30.82,ESE,117,1.2,1.2,37,0.00,BKN,,0.00,WeatherDisplay:10.37,2013-05-02 02:09:00,
2013-05-01 22:14:00,62.4,36.4,30.82,ESE,117,1.2,1.2,38,0.00,BKN,,0.00,WeatherDisplay:10.37,2013-05-02 02:14:00,
2013-05-01 22:19:00,62.1,36.8,30.82,ESE,117,0.0,0.0,39,0.00,BKN,,0.00,WeatherDisplay:10.37,2013-05-02 02:19:00,
2013-05-01 22:24:00,61.3,36.8,30.82,ESE,117,0.0,0.0,40,0.00,BKN,,0.00,WeatherDisplay:10.37,2013-05-02 02:24:00,
2013-05-01 22:29:00,60.1,39.8,30.82,ESE,117,0.0,0.0,47,0.00,BKN,,0.00,WeatherDisplay:10.37,2013-05-02 02:29:00,
2013-05-01 22:34:00,59.0,36.5,30.82,ESE,117,0.0,0.0,43,0.00,BKN,,0.00,WeatherDisplay:10.37,2013-05-02 02:34:00,
2013-05-01 22:39:00,58.6,37.3,30.82,ESE,117,0.0,0.0,45,0.00,BKN,,0.00,WeatherDisplay:10.37,2013-05-02 02:39:00,
2013-05-01 22:44:00,58.4,36.6,30.82,ESE,117,0.0,0.0,44,0.00,BKN,,0.00,WeatherDisplay:10.37,2013-05-02 02:44:00,
2013-05-01 22:49:00,57.8,37.7,30.82,ESE,117,0.0,0.0,47,0.00,BKN,,0.00,WeatherDisplay:10.37,2013-05-02 02:49:00,
2013-05-01 22:54:00,56.9,37.4,30.82,ESE,117,0.0,0.0,48,0.00,BKN,,0.00,WeatherDisplay:10.37,2013-05-02 02:54:00,
2013-05-01 22:59:00,55.9,36.5,30.81,ESE,117,0.0,0.0,48,0.00,BKN,,0.00,WeatherDisplay:10.37,2013-05-02 02:59:00,
2013-05-01 23:04:00,55.6,36.2,30.81,ESE,117,0.0,0.0,48,0.00,BKN,,0.00,WeatherDisplay:10.37,2013-05-02 03:04:00,
2013-05-01 23:09:00,56.6,36.0,30.81,ESE,117,0.0,0.0,46,0.00,BKN,,0.00,WeatherDisplay:10.37,2013-05-02 03:09:00,
2013-05-01 23:14:00,56.7,36.1,30.81,ESE,117,0.0,0.0,46,0.00,BKN,,0.00,WeatherDisplay:10.37,2013-05-02 03:14:00,
2013-05-01 23:19:00,56.4,36.4,30.81,ESE,122,1.0,0.0,47,0.00,BKN,,0.00,WeatherDisplay:10.37,2013-05-02 03:19:00,
2013-05-01 23:24:00,57.1,37.0,30.81,ESE,123,0.0,0.0,47,0.00,BKN,,0.00,WeatherDisplay:10.37,2013-05-02 03:24:00,
2013-05-01 23:29:00,57.0,37.5,30.81,SE,124,0.0,0.0,48,0.00,BKN,,0.00,WeatherDisplay:10.37,2013-05-02 03:29:00,
2013-05-01 23:34:00,56.1,42.4,30.81,South,182,0.0,0.0,60,0.00,BKN,,0.00,WeatherDisplay:10.37,2013-05-02 03:34:00,
2013-05-01 23:39:00,54.5,41.7,30.81,South,182,0.0,0.0,62,0.00,BKN,,0.00,WeatherDisplay:10.37,2013-05-02 03:39:00,
2013-05-01 23:44:00,53.6,38.3,30.81,South,182,0.0,0.0,56,0.00,BKN,,0.00,WeatherDisplay:10.37,2013-05-02 03:44:00,
2013-05-01 23:49:00,53.9,38.1,30.80,South,182,0.0,0.0,55,0.00,BKN,,0.00,WeatherDisplay:10.37,2013-05-02 03:49:00,
2013-05-01 23:54:00,54.9,38.6,30.80,South,182,0.0,0.0,54,0.00,BKN,,0.00,WeatherDisplay:10.37,2013-05-02 03:54:00,
2013-05-01 23:59:00,54.9,37.6,30.80,South,181,1.2,1.2,52,0.00,BKN,,0.00,WeatherDisplay:10.37,2013-05-02 03:59:00,